createdAt,value
2023-02-25T00:02:04.731Z,-27.66
2023-02-25T00:04:31.856Z,-27.68
2023-02-25T00:06:58.601Z,-27.65
2023-02-25T00:09:25.144Z,-27.59
2023-02-25T00:11:51.778Z,-27.63
2023-02-25T00:14:18.417Z,-27.67
2023-02-25T00:16:45.141Z,-27.60
2023-02-25T00:19:13.483Z,-27.78
2023-02-25T00:21:40.037Z,-27.68
2023-02-25T00:24:16.063Z,-27.76
2023-02-25T00:26:43.586Z,-27.84
2023-02-25T00:29:10.204Z,-27.78
2023-02-25T00:31:36.806Z,-27.77
2023-02-25T00:34:03.516Z,-27.72
2023-02-25T00:36:30.052Z,-27.74
2023-02-25T00:38:57.698Z,-27.77
2023-02-25T00:41:29.027Z,-27.81
2023-02-25T00:44:00.584Z,-27.86
2023-02-25T00:46:28.695Z,-27.83
2023-02-25T00:48:55.635Z,-27.75
2023-02-25T00:51:24.733Z,-27.74
2023-02-25T00:53:52.961Z,-27.74
2023-02-25T00:56:20.504Z,-27.75
2023-02-25T00:58:48.966Z,-27.74
2023-02-25T01:01:27.678Z,-27.70
2023-02-25T01:03:57.407Z,-27.75
2023-02-25T01:06:25.650Z,-27.81
2023-02-25T01:08:52.444Z,-27.75
2023-02-25T01:11:27.066Z,-27.70
2023-02-25T01:13:54.326Z,-27.77
2023-02-25T01:16:23.835Z,-27.89
2023-02-25T01:18:55.680Z,-27.94
2023-02-25T01:21:25.944Z,-27.95
2023-02-25T01:24:01.164Z,-27.94
2023-02-25T01:26:29.596Z,-27.96
2023-02-25T01:28:56.558Z,-28.05
2023-02-25T01:31:29.644Z,-28.10
2023-02-25T01:34:01.321Z,-28.05
2023-02-25T01:36:28.941Z,-28.12
2023-02-25T01:38:56.844Z,-28.10
2023-02-25T01:41:24.703Z,-28.11
2023-02-25T01:44:06.429Z,-28.21
2023-02-25T01:46:33.206Z,-28.29
2023-02-25T01:49:00.836Z,-28.29
2023-02-25T01:51:28.402Z,-28.27
2023-02-25T01:53:57.412Z,-28.30
2023-02-25T01:56:26.051Z,-28.40
2023-02-25T01:58:53.454Z,-28.43
2023-02-25T02:01:22.291Z,-28.39
2023-02-25T02:03:50.092Z,-28.47
2023-02-25T02:06:21.867Z,-28.45
2023-02-25T02:08:49.784Z,-28.51
2023-02-25T02:11:17.134Z,-28.50
2023-02-25T02:13:47.019Z,-28.42
2023-02-25T02:16:31.704Z,-28.46
2023-02-25T02:19:10.034Z,-28.43
2023-02-25T02:22:00.746Z,-28.44
2023-02-25T02:25:01.830Z,-28.37
2023-02-25T02:27:34.317Z,-28.41
2023-02-25T02:30:18.914Z,-28.40
2023-02-25T02:32:58.874Z,-28.30
2023-02-25T02:35:51.625Z,-28.37
2023-02-25T02:38:18.125Z,-28.40
2023-02-25T02:40:57.888Z,-28.40
2023-02-25T02:43:33.671Z,-28.32
2023-02-25T02:46:22.709Z,-28.42
2023-02-25T02:49:27.119Z,-28.45
2023-02-25T02:51:58.852Z,-28.51
2023-02-25T02:54:29.984Z,-28.47
2023-02-25T02:56:58.125Z,-28.50
2023-02-25T02:59:34.871Z,-28.44
2023-02-25T03:02:06.633Z,-28.50
2023-02-25T03:04:36.508Z,-28.65
2023-02-25T03:07:08.173Z,-28.86
2023-02-25T03:09:46.815Z,-28.92
2023-02-25T03:12:13.466Z,-28.91
2023-02-25T03:14:40.208Z,-29.02
2023-02-25T03:17:10.491Z,-29.10
2023-02-25T03:19:46.082Z,-29.13
2023-02-25T03:22:18.488Z,-29.23
2023-02-25T03:24:50.428Z,-29.24
2023-02-25T03:27:39.169Z,-29.34
2023-02-25T03:30:14.869Z,-29.40
2023-02-25T03:32:44.552Z,-29.50
2023-02-25T03:35:12.355Z,-29.47
2023-02-25T03:37:39.973Z,-29.58
2023-02-25T03:40:12.287Z,-29.50
2023-02-25T03:42:42.904Z,-29.65
2023-02-25T03:45:10.996Z,-29.62
2023-02-25T03:47:38.395Z,-29.63
2023-02-25T03:50:35.595Z,-29.74
2023-02-25T03:53:02.218Z,-29.81
2023-02-25T03:55:29.388Z,-29.83
2023-02-25T03:57:56.692Z,-29.89
2023-02-25T04:00:26.367Z,-29.90
2023-02-25T04:02:53.083Z,-29.98
2023-02-25T04:05:21.730Z,-30.07
2023-02-25T04:07:48.490Z,-30.13
2023-02-25T04:10:16.375Z,-30.14
2023-02-25T04:12:43.169Z,-30.10
2023-02-25T04:15:10.426Z,-30.20
2023-02-25T04:17:37.209Z,-30.20
2023-02-25T04:20:05.509Z,-30.23
2023-02-25T04:22:33.388Z,-30.21
2023-02-25T04:25:00.433Z,-30.23
2023-02-25T04:27:27.373Z,-30.39
2023-02-25T04:29:54.081Z,-30.40
2023-02-25T04:32:20.896Z,-30.43
2023-02-25T04:34:47.556Z,-30.43
2023-02-25T04:37:14.353Z,-30.43
2023-02-25T04:39:41.531Z,-30.47
2023-02-25T04:42:08.200Z,-30.53
2023-02-25T04:44:35.244Z,-30.41
2023-02-25T04:47:01.965Z,-30.44
2023-02-25T04:49:28.578Z,-30.45
2023-02-25T04:51:55.493Z,-30.51
2023-02-25T04:54:22.218Z,-30.49
2023-02-25T04:56:49.019Z,-30.55
2023-02-25T04:59:16.184Z,-30.51
2023-02-25T05:01:43.173Z,-30.58
2023-02-25T05:04:09.966Z,-30.55
2023-02-25T05:06:36.763Z,-30.47
2023-02-25T05:09:04.001Z,-30.44
2023-02-25T05:11:30.689Z,-30.46
2023-02-25T05:13:57.651Z,-30.43
2023-02-25T05:16:25.399Z,-30.44
2023-02-25T05:18:52.479Z,-30.45
2023-02-25T05:21:22.236Z,-30.44
2023-02-25T05:23:50.474Z,-30.45
2023-02-25T05:26:21.884Z,-30.46
2023-02-25T05:28:52.846Z,-30.41
2023-02-25T05:31:20.034Z,-30.40
2023-02-25T05:33:47.714Z,-30.51
2023-02-25T05:36:15.837Z,-30.52
2023-02-25T05:38:42.623Z,-30.48
2023-02-25T05:41:10.136Z,-30.56
2023-02-25T05:43:38.410Z,-30.47
2023-02-25T05:46:09.144Z,-30.51
2023-02-25T05:48:35.739Z,-30.57
2023-02-25T05:51:08.207Z,-30.51
2023-02-25T05:53:35.166Z,-30.60
2023-02-25T05:56:06.506Z,-30.61
2023-02-25T05:58:34.707Z,-30.63
2023-02-25T06:01:13.518Z,-30.57
2023-02-25T06:03:41.721Z,-30.55
2023-02-25T06:06:10.275Z,-30.62
2023-02-25T06:08:36.852Z,-30.52
2023-02-25T06:11:06.049Z,-30.50
2023-02-25T06:13:33.190Z,-30.54
2023-02-25T06:16:03.385Z,-30.57
2023-02-25T06:18:29.979Z,-30.55
2023-02-25T06:21:02.813Z,-30.54
2023-02-25T06:23:29.407Z,-30.48
2023-02-25T06:25:58.513Z,-30.54
2023-02-25T06:28:25.040Z,-30.50
2023-02-25T06:30:51.766Z,-30.48
2023-02-25T06:33:18.452Z,-30.45
2023-02-25T06:35:45.068Z,-30.43
2023-02-25T06:38:11.600Z,-30.37
2023-02-25T06:40:38.500Z,-30.42
2023-02-25T06:43:05.087Z,-30.38
2023-02-25T06:45:31.672Z,-30.43
2023-02-25T06:47:58.732Z,-30.42
2023-02-25T06:50:25.304Z,-30.37
2023-02-25T06:52:51.799Z,-30.36
2023-02-25T06:55:18.383Z,-30.39
2023-02-25T06:57:44.927Z,-30.37
2023-02-25T07:00:12.043Z,-30.36
2023-02-25T07:02:38.568Z,-30.32
2023-02-25T07:05:05.561Z,-30.28
2023-02-25T07:07:32.380Z,-30.21
2023-02-25T07:09:58.883Z,-30.31
2023-02-25T07:12:25.408Z,-30.26
2023-02-25T07:14:51.917Z,-30.16
2023-02-25T07:17:18.511Z,-30.20
2023-02-25T07:19:45.351Z,-30.18
2023-02-25T08:55:43.862Z,-28.95
2023-02-25T08:58:10.328Z,-28.76
2023-02-25T09:00:36.851Z,-28.63
2023-02-25T09:03:03.806Z,-28.73
2023-02-25T09:05:30.369Z,-28.83
2023-02-25T09:07:59.020Z,-28.76
2023-02-25T09:10:25.714Z,-28.83
2023-02-25T09:12:53.038Z,-28.70
2023-02-25T09:15:21.733Z,-28.69
2023-02-25T09:17:48.300Z,-28.61
2023-02-25T09:20:17.994Z,-28.66
2023-02-25T09:22:44.594Z,-28.48
2023-02-25T09:25:11.185Z,-28.43
2023-02-25T09:27:37.882Z,-28.36
2023-02-25T09:30:04.714Z,-28.15
2023-02-25T09:32:31.488Z,-27.98
2023-02-25T09:35:00.122Z,-28.18
2023-02-25T09:37:27.796Z,-28.20
2023-02-25T09:39:54.908Z,-28.26
2023-02-25T09:42:24.102Z,-28.18
2023-02-25T09:44:57.569Z,-28.15
2023-02-25T09:47:53.182Z,-27.65
2023-02-25T09:50:23.753Z,-27.46
2023-02-25T09:53:22.688Z,-27.42
2023-02-25T09:55:51.949Z,-27.68
2023-02-25T09:58:49.953Z,-27.80
2023-02-25T10:01:24.912Z,-27.80
2023-02-25T10:04:18.783Z,-27.80
2023-02-25T10:06:50.538Z,-27.78
2023-02-25T10:09:42.825Z,-27.80
2023-02-25T10:12:30.926Z,-27.72
2023-02-25T10:15:21.104Z,-27.88
2023-02-25T10:18:04.698Z,-28.02
2023-02-25T10:20:53.256Z,-28.15
2023-02-25T10:23:38.542Z,-28.36
2023-02-25T10:26:21.185Z,-28.88
2023-02-25T10:28:53.142Z,-29.08
2023-02-25T10:31:21.342Z,-29.39
2023-02-25T10:33:50.595Z,-29.61
2023-02-25T10:36:19.287Z,-29.80
2023-02-25T10:38:48.035Z,-29.85
2023-02-25T10:41:14.895Z,-29.91
2023-02-25T10:43:42.252Z,-29.84
2023-02-25T10:46:19.182Z,-29.72
2023-02-25T10:48:55.759Z,-29.52
2023-02-25T10:51:22.762Z,-29.39
2023-02-25T10:53:58.662Z,-29.39
2023-02-25T10:56:27.759Z,-29.29
2023-02-25T10:59:07.632Z,-29.28
2023-02-25T11:01:42.260Z,-29.19
2023-02-25T11:04:14.755Z,-29.08
2023-02-25T11:06:43.544Z,-28.84
2023-02-25T11:09:19.387Z,-28.76
2023-02-25T11:11:57.159Z,-28.91
2023-02-25T11:14:35.586Z,-28.92
2023-02-25T11:17:17.259Z,-28.88
2023-02-25T11:19:58.923Z,-28.95
2023-02-25T11:22:38.054Z,-29.06
2023-02-25T11:25:08.168Z,-29.12
2023-02-25T11:27:40.221Z,-28.92
2023-02-25T11:30:14.699Z,-29.14
2023-02-25T11:32:53.900Z,-29.08
2023-02-25T11:35:28.788Z,-29.14
2023-02-25T11:37:59.877Z,-28.94
2023-02-25T11:40:36.234Z,-28.63
2023-02-25T11:43:05.522Z,-28.39
2023-02-25T11:45:38.606Z,-28.28
2023-02-25T11:48:14.903Z,-27.86
2023-02-25T11:51:09.788Z,-27.88
2023-02-25T11:54:08.479Z,-27.81
2023-02-25T11:56:37.982Z,-27.92
2023-02-25T11:59:12.796Z,-28.06
2023-02-25T12:01:50.996Z,-28.53
2023-02-25T12:04:54.868Z,-28.60
2023-02-25T12:08:12.857Z,-28.71
2023-02-25T12:11:01.600Z,-28.75
2023-02-25T12:13:50.650Z,-28.66
2023-02-25T12:16:45.533Z,-28.70
2023-02-25T12:19:39.551Z,-28.71
2023-02-25T12:22:27.532Z,-28.75
2023-02-25T12:25:10.551Z,-28.68
2023-02-25T12:28:01.645Z,-28.81
2023-02-25T12:30:36.619Z,-28.78
2023-02-25T12:33:32.990Z,-28.98
2023-02-25T12:36:34.863Z,-29.22
2023-02-25T12:39:14.268Z,-29.41
2023-02-25T12:42:09.701Z,-29.73
2023-02-25T12:44:42.300Z,-30.00
2023-02-25T12:47:44.080Z,-30.23
2023-02-25T12:50:31.175Z,-30.14
2023-02-25T12:53:06.470Z,-29.99
2023-02-25T12:55:54.526Z,-30.00
2023-02-25T12:58:40.103Z,-29.96
2023-02-25T13:01:39.145Z,-30.07
2023-02-25T13:04:24.731Z,-30.11
2023-02-25T13:07:28.768Z,-30.11
2023-02-25T13:10:14.099Z,-30.03
2023-02-25T13:13:06.161Z,-29.84
2023-02-25T13:15:53.983Z,-29.67
2023-02-25T13:18:48.617Z,-29.48
2023-02-25T13:21:29.675Z,-29.33
2023-02-25T13:24:20.710Z,-29.10
2023-02-25T13:26:53.400Z,-29.02
2023-02-25T13:29:57.814Z,-29.09
2023-02-25T13:32:56.686Z,-28.91
2023-02-25T13:35:44.392Z,-28.91
2023-02-25T13:39:06.742Z,-29.19
2023-02-25T13:41:35.702Z,-29.18
2023-02-25T13:44:52.619Z,-29.40
2023-02-25T13:47:46.764Z,-29.39
2023-02-25T13:50:34.987Z,-29.37
2023-02-25T13:53:36.716Z,-29.29
2023-02-25T13:56:23.652Z,-29.22
2023-02-25T13:59:14.810Z,-29.00
2023-02-25T14:01:49.578Z,-28.85
2023-02-25T14:04:49.729Z,-28.90
2023-02-25T14:07:51.675Z,-28.88
2023-02-25T14:10:33.070Z,-28.84
2023-02-25T14:13:39.823Z,-28.80
2023-02-25T14:16:12.002Z,-28.80
2023-02-25T14:18:44.641Z,-28.71
2023-02-25T14:21:38.015Z,-28.84
2023-02-25T14:24:10.628Z,-28.99
2023-02-25T14:27:04.552Z,-29.05
2023-02-25T14:30:03.222Z,-29.15
2023-02-25T14:32:48.725Z,-29.10
2023-02-25T14:35:37.929Z,-29.01
2023-02-25T14:38:33.609Z,-29.23
2023-02-25T14:41:23.620Z,-29.24
2023-02-25T14:43:52.659Z,-29.12
2023-02-25T14:46:33.206Z,-29.16
2023-02-25T14:49:17.927Z,-29.18
2023-02-25T14:52:03.583Z,-29.14
2023-02-25T14:54:54.967Z,-29.23
2023-02-25T14:58:07.342Z,-29.27
2023-02-25T15:00:33.999Z,-29.33
2023-02-25T15:03:17.440Z,-29.29
2023-02-25T15:05:54.221Z,-29.45
2023-02-25T15:08:52.636Z,-29.37
2023-02-25T15:11:42.722Z,-29.47
2023-02-25T15:14:12.246Z,-29.38
2023-02-25T15:16:51.122Z,-29.40
2023-02-25T15:19:29.906Z,-29.36
2023-02-25T15:22:25.266Z,-29.31
2023-02-25T15:24:54.651Z,-29.42
2023-02-25T15:27:56.691Z,-29.44
2023-02-25T15:30:25.162Z,-29.46
2023-02-25T15:32:53.944Z,-29.46
2023-02-25T15:35:35.254Z,-29.44
2023-02-25T15:38:06.878Z,-29.42
2023-02-25T15:40:33.760Z,-29.46
2023-02-25T15:43:39.821Z,-29.52
2023-02-25T15:46:06.370Z,-29.50
2023-02-25T15:48:35.179Z,-29.50
2023-02-25T15:51:03.353Z,-29.52
2023-02-25T15:53:36.822Z,-29.46
2023-02-25T15:56:03.305Z,-29.54
2023-02-25T15:58:30.295Z,-29.45
2023-02-25T16:01:06.471Z,-29.68
2023-02-25T16:03:35.957Z,-29.63
2023-02-25T16:06:07.062Z,-29.65
2023-02-25T16:09:01.504Z,-29.54
2023-02-25T16:11:35.753Z,-29.66
2023-02-25T16:14:17.550Z,-29.82
2023-02-25T16:16:52.740Z,-29.78
2023-02-25T16:19:21.528Z,-29.66
2023-02-25T16:22:09.327Z,-29.75
2023-02-25T16:24:37.134Z,-29.76
2023-02-25T16:27:25.842Z,-29.77
2023-02-25T16:30:23.660Z,-29.78
2023-02-25T16:33:09.222Z,-29.71
2023-02-25T16:36:06.852Z,-29.70
2023-02-25T16:38:56.343Z,-29.66
2023-02-25T16:41:30.352Z,-29.73
2023-02-25T16:44:03.418Z,-29.77
2023-02-25T16:46:35.140Z,-29.75
2023-02-25T16:49:03.744Z,-29.74
2023-02-25T16:51:33.283Z,-29.71
2023-02-25T16:54:06.245Z,-29.75
2023-02-25T16:56:33.091Z,-29.69
2023-02-25T16:59:14.909Z,-29.63
2023-02-25T17:01:50.308Z,-29.73
2023-02-25T17:04:36.436Z,-29.83
2023-02-25T17:07:07.587Z,-29.79
2023-02-25T17:09:34.765Z,-29.82
2023-02-25T17:12:03.127Z,-29.79
2023-02-25T17:14:30.915Z,-29.84
2023-02-25T17:16:57.743Z,-29.90
2023-02-25T17:19:24.907Z,-29.94
2023-02-25T17:21:55.513Z,-29.99
2023-02-25T17:24:26.998Z,-29.91
2023-02-25T17:26:54.022Z,-29.98
2023-02-25T17:29:21.174Z,-29.87
2023-02-25T17:31:53.561Z,-29.91
2023-02-25T17:34:28.054Z,-29.98
2023-02-25T17:36:56.087Z,-29.94
2023-02-25T17:39:22.748Z,-29.85
2023-02-25T17:41:49.701Z,-29.84
2023-02-25T17:44:44.667Z,-29.97
2023-02-25T17:47:18.172Z,-29.96
2023-02-25T17:49:44.826Z,-29.97
2023-02-25T17:52:23.600Z,-29.92
2023-02-25T17:55:04.266Z,-29.89
2023-02-25T17:57:32.378Z,-30.10
2023-02-25T18:00:27.019Z,-30.07
2023-02-25T18:03:19.643Z,-29.98
2023-02-25T18:05:54.524Z,-29.95
2023-02-25T18:08:25.305Z,-30.04
2023-02-25T18:11:02.280Z,-29.96
2023-02-25T18:13:35.252Z,-29.98
2023-02-25T18:16:41.187Z,-29.92
2023-02-25T18:19:25.208Z,-29.99
2023-02-25T18:21:52.811Z,-29.95
2023-02-25T18:24:33.190Z,-30.13
2023-02-25T18:27:30.652Z,-30.05
2023-02-25T18:30:19.456Z,-30.02
2023-02-25T18:32:46.936Z,-30.02
2023-02-25T18:35:14.242Z,-29.94
2023-02-25T18:37:41.588Z,-29.98
2023-02-25T18:40:15.868Z,-30.05
2023-02-25T18:42:42.642Z,-30.09
2023-02-25T18:45:17.011Z,-29.98
2023-02-25T18:47:44.019Z,-30.14
2023-02-25T18:50:11.409Z,-30.02
2023-02-25T18:52:38.259Z,-30.10
2023-02-25T18:55:06.433Z,-30.10
2023-02-25T18:57:33.051Z,-30.02
2023-02-25T18:59:59.537Z,-30.00
2023-02-25T19:02:35.250Z,-30.08
2023-02-25T19:05:02.920Z,-29.99
2023-02-25T19:07:31.816Z,-30.00
2023-02-25T19:09:58.835Z,-29.97
2023-02-25T19:12:27.398Z,-29.98
2023-02-25T19:15:00.271Z,-29.93
2023-02-25T19:17:28.702Z,-29.96
2023-02-25T19:19:56.150Z,-29.96
2023-02-25T19:22:23.061Z,-29.89
2023-02-25T19:24:50.698Z,-30.05
2023-02-25T19:27:28.351Z,-29.98
2023-02-25T19:29:57.868Z,-30.06
2023-02-25T19:32:25.502Z,-30.00
2023-02-25T19:34:52.386Z,-30.22
2023-02-25T19:37:20.715Z,-30.16
2023-02-25T19:39:47.197Z,-30.11
2023-02-25T19:42:13.919Z,-30.19
2023-02-25T19:44:40.610Z,-30.09
2023-02-25T19:47:08.025Z,-30.27
2023-02-25T19:49:34.684Z,-30.17
2023-02-25T19:52:01.558Z,-30.12
2023-02-25T19:54:28.011Z,-30.23
2023-02-25T19:56:54.909Z,-30.22
2023-02-25T19:59:21.477Z,-30.24
2023-02-25T20:01:48.015Z,-30.30
2023-02-25T20:04:14.740Z,-30.35
2023-02-25T20:06:41.369Z,-30.34
2023-02-25T20:09:09.275Z,-30.24
2023-02-25T20:11:35.929Z,-30.33
2023-02-25T20:14:03.991Z,-30.21
2023-02-25T20:16:31.153Z,-30.22
2023-02-25T20:18:58.009Z,-30.19
2023-02-25T20:21:26.333Z,-30.29
2023-02-25T20:23:53.170Z,-30.24
2023-02-25T20:26:23.106Z,-30.26
2023-02-25T20:28:52.253Z,-30.24
2023-02-25T20:31:19.179Z,-30.30
2023-02-25T20:33:48.989Z,-30.34
2023-02-25T20:36:30.507Z,-30.33
2023-02-25T20:39:16.817Z,-30.25
2023-02-25T20:41:44.868Z,-30.22
2023-02-25T20:44:12.072Z,-30.25
2023-02-25T20:46:39.832Z,-30.14
2023-02-25T20:49:08.149Z,-30.17
2023-02-25T20:51:34.930Z,-30.18
2023-02-25T20:54:04.034Z,-30.22
2023-02-25T20:56:32.101Z,-30.23
2023-02-25T20:58:59.151Z,-30.28
2023-02-25T21:01:25.850Z,-30.20
2023-02-25T21:03:52.867Z,-30.15
2023-02-25T21:06:21.792Z,-30.15
2023-02-25T21:08:48.820Z,-30.31
2023-02-25T21:11:15.620Z,-30.34
2023-02-25T21:13:42.215Z,-30.37
2023-02-25T21:16:09.155Z,-30.40
2023-02-25T21:18:35.894Z,-30.41
2023-02-25T21:21:06.065Z,-30.45
2023-02-25T21:23:32.872Z,-30.43
2023-02-25T21:26:00.348Z,-30.42
2023-02-25T21:28:28.173Z,-30.52
2023-02-25T21:31:21.295Z,-30.58
2023-02-25T21:33:47.849Z,-30.62
2023-02-25T21:36:14.602Z,-30.70
2023-02-25T21:38:41.498Z,-30.63
2023-02-25T21:41:13.379Z,-30.59
2023-02-25T21:43:40.756Z,-30.61
2023-02-25T21:46:11.521Z,-30.55
2023-02-25T21:48:39.224Z,-30.57
2023-02-25T21:51:06.539Z,-30.68
2023-02-25T21:53:33.831Z,-30.64
2023-02-25T21:56:09.163Z,-30.49
2023-02-25T21:58:35.936Z,-30.50
2023-02-25T22:01:16.111Z,-30.55
2023-02-25T22:03:43.560Z,-30.49
2023-02-25T22:06:10.096Z,-30.57
2023-02-25T22:08:39.455Z,-30.68
2023-02-25T22:11:11.614Z,-30.82
2023-02-25T22:13:38.237Z,-30.89
2023-02-25T22:16:04.969Z,-30.87
2023-02-25T22:18:31.677Z,-30.89
2023-02-25T22:21:16.276Z,-30.88
2023-02-25T22:23:43.560Z,-30.86
2023-02-25T22:26:15.654Z,-30.93
2023-02-25T22:28:43.339Z,-30.86
2023-02-25T22:31:12.573Z,-30.84
2023-02-25T22:33:39.983Z,-30.85
2023-02-25T22:36:07.438Z,-30.92
2023-02-25T22:38:38.857Z,-30.99
2023-02-25T22:41:10.247Z,-31.00
2023-02-25T22:43:36.961Z,-30.86
2023-02-25T22:46:08.850Z,-30.90
2023-02-25T22:48:36.867Z,-30.83
2023-02-25T22:51:04.441Z,-30.89
2023-02-25T22:53:31.094Z,-31.01
2023-02-25T22:56:04.746Z,-31.12
2023-02-25T22:58:31.562Z,-31.03
2023-02-25T23:00:58.245Z,-31.00
2023-02-25T23:03:25.037Z,-30.98
2023-02-25T23:05:54.590Z,-30.97
2023-02-25T23:08:21.800Z,-31.05
2023-02-25T23:10:48.366Z,-31.06
2023-02-25T23:13:15.015Z,-31.13
2023-02-25T23:15:42.178Z,-31.08
2023-02-25T23:18:09.642Z,-31.32
2023-02-25T23:20:38.414Z,-31.34
2023-02-25T23:23:06.375Z,-31.31
2023-02-25T23:25:35.244Z,-31.29
2023-02-25T23:28:02.087Z,-31.39
2023-02-25T23:30:28.828Z,-31.43
2023-02-25T23:32:57.390Z,-31.35
2023-02-25T23:35:24.426Z,-31.34
2023-02-25T23:37:51.196Z,-31.29
2023-02-25T23:40:17.853Z,-31.30
2023-02-25T23:42:45.011Z,-31.35
2023-02-25T23:45:13.028Z,-31.39
2023-02-25T23:47:42.651Z,-31.45
2023-02-25T23:50:15.070Z,-31.39
2023-02-25T23:52:43.430Z,-31.42
2023-02-25T23:55:11.568Z,-31.59
2023-02-25T23:57:38.608Z,-31.68
